Time;durP1;ratioP1;P1;durP2;ratioP2;P2;SDS_P1;SDS_P2;PMS_P1;PMS_P2;Temp;Humidity;BMP_temperature;BMP_pressure;BME280_temperature;BME280_humidity;BME280_pressure;Samples;Min_cycle;Max_cycle;Signal;HPM_P1;HPM_P2
2021/06/08 00:01:21;;;;;;;16.17;6.65;;;;;;;19.79;65.73;100406.84;5075544;28;20016;-61
2021/06/08 00:03:46;;;;;;;11.90;6.38;;;;;;;19.75;66.56;100409.81;5075728;28;20114;-62
2021/06/08 00:06:12;;;;;;;15.18;7.15;;;;;;;19.72;66.83;100409.94;5075249;28;20067;-61
2021/06/08 00:08:37;;;;;;;9.60;6.78;;;;;;;19.69;66.38;100402.31;5075489;28;20017;-61
2021/06/08 00:11:03;;;;;;;10.52;7.13;;;;;;;19.68;66.59;100406.44;5075008;28;20032;-61
2021/06/08 00:13:29;;;;;;;8.40;7.10;;;;;;;19.65;66.03;100401.66;5075564;28;20103;-62
2021/06/08 00:15:55;;;;;;;10.68;6.53;;;;;;;19.61;66.57;100403.84;5075668;28;20020;-61
2021/06/08 00:18:20;;;;;;;11.60;6.70;;;;;;;19.60;66.45;100402.25;5075112;28;20047;-61
2021/06/08 00:20:46;;;;;;;13.63;6.60;;;;;;;19.59;66.76;100400.69;5075109;28;20028;-61
2021/06/08 00:23:11;;;;;;;13.85;6.50;;;;;;;19.57;66.98;100398.28;5075358;28;20100;-61
2021/06/08 00:25:38;;;;;;;16.13;6.78;;;;;;;19.55;66.92;100400.81;5075005;28;20184;-61
2021/06/08 00:28:04;;;;;;;10.18;6.82;;;;;;;19.54;66.95;100402.06;5075328;28;20056;-61
2021/06/08 00:30:30;;;;;;;11.57;6.65;;;;;;;19.51;66.73;100394.41;5075128;28;20349;-61
2021/06/08 00:32:55;;;;;;;10.30;6.70;;;;;;;19.49;66.73;100396.94;5075065;28;20107;-61
2021/06/08 00:35:20;;;;;;;9.38;6.45;;;;;;;19.43;66.91;100388.16;5084188;28;20032;-61
2021/06/08 00:37:46;;;;;;;12.43;6.60;;;;;;;19.38;67.96;100396.53;5075135;28;20028;-62
2021/06/08 00:40:12;;;;;;;11.40;6.43;;;;;;;19.29;67.95;100397.25;5075145;28;20119;-61
2021/06/08 00:42:37;;;;;;;8.68;6.43;;;;;;;19.24;67.99;100388.50;5074893;28;20043;-61
2021/06/08 00:45:07;;;;;;;10.23;6.57;;;;;;;19.21;67.81;100384.53;5075009;28;20031;-61
2021/06/08 00:47:33;;;;;;;7.57;6.25;;;;;;;19.19;68.29;100380.56;5075937;28;20100;-61
2021/06/08 00:49:59;;;;;;;9.80;6.20;;;;;;;19.14;68.39;100382.72;5078705;28;20128;-61
2021/06/08 00:52:24;;;;;;;10.23;6.65;;;;;;;19.13;68.50;100377.47;5078856;28;20107;-61
2021/06/08 00:54:50;;;;;;;9.88;6.03;;;;;;;19.12;67.76;100376.69;5078960;28;20111;-61
2021/06/08 00:57:15;;;;;;;9.00;6.05;;;;;;;19.09;67.87;100380.47;5078667;28;20056;-61
2021/06/08 00:59:40;;;;;;;13.27;6.78;;;;;;;19.03;68.32;100387.22;5079066;28;20460;-61
2021/06/08 01:02:06;;;;;;;10.35;6.32;;;;;;;18.97;68.19;100378.47;5078675;28;20458;-61
2021/06/08 01:04:32;;;;;;;8.70;6.60;;;;;;;18.91;68.40;100388.88;5078313;28;20032;-61
2021/06/08 01:06:57;;;;;;;8.65;6.05;;;;;;;18.86;69.06;100388.63;5078918;28;20078;-61
2021/06/08 01:09:23;;;;;;;9.88;6.47;;;;;;;18.82;68.69;100388.75;5078542;28;20472;-61
2021/06/08 01:11:48;;;;;;;8.60;6.70;;;;;;;18.78;68.71;100385.25;5078530;28;20028;-61
2021/06/08 01:14:13;;;;;;;9.70;7.07;;;;;;;18.76;68.80;100373.53;5078322;28;20054;-61
2021/06/08 01:16:39;;;;;;;12.15;6.25;;;;;;;18.77;68.56;100381.59;5078484;28;20438;-62
2021/06/08 01:19:05;;;;;;;7.75;6.30;;;;;;;18.78;68.29;100379.56;5078197;28;20069;-62
2021/06/08 01:21:31;;;;;;;10.18;6.43;;;;;;;18.78;67.98;100379.56;5078405;28;20024;-62
2021/06/08 01:23:57;;;;;;;11.20;6.60;;;;;;;18.77;68.35;100378.75;5078149;28;20020;-62
2021/06/08 01:26:25;;;;;;;12.02;6.38;;;;;;;18.76;68.17;100384.91;5078401;28;20047;-62
2021/06/08 01:28:50;;;;;;;11.25;6.28;;;;;;;18.72;67.81;100378.53;5077691;28;20032;-62
2021/06/08 01:31:19;;;;;;;7.18;6.07;;;;;;;18.67;68.08;100371.38;5078242;28;20037;-62
2021/06/08 01:33:46;;;;;;;12.45;6.72;;;;;;;18.64;67.95;100375.16;5077721;28;20415;-62
2021/06/08 01:36:14;;;;;;;9.18;6.32;;;;;;;18.62;68.25;100369.09;5087499;28;20028;-62
2021/06/08 01:38:41;;;;;;;6.93;6.25;;;;;;;18.61;68.41;100383.75;5078088;28;20367;-61
2021/06/08 01:41:07;;;;;;;12.70;6.80;;;;;;;18.60;68.16;100380.13;5077894;28;20020;-62
2021/06/08 01:43:33;;;;;;;11.75;6.75;;;;;;;18.59;68.39;100384.22;5077982;28;20419;-61
2021/06/08 01:45:59;;;;;;;8.95;6.47;;;;;;;18.60;68.11;100380.13;5068322;28;20032;-62
2021/06/08 01:48:24;;;;;;;10.15;7.43;;;;;;;18.59;68.62;100389.91;5071382;28;20047;-62
2021/06/08 01:50:50;;;;;;;15.35;6.95;;;;;;;18.58;68.15;100382.63;5077523;28;20051;-61
2021/06/08 01:53:34;;;;;;;9.27;7.20;;;;;;;18.59;68.05;100391.97;5077953;28;20374;-61
2021/06/08 01:56:03;;;;;;;10.65;7.20;;;;;;;18.60;68.12;100385.81;5077413;28;20020;-62
2021/06/08 01:58:49;;;;;;;10.57;7.13;;;;;;;18.61;68.57;100381.72;5077687;28;20028;-62
2021/06/08 02:01:30;;;;;;;9.82;7.13;;;;;;;18.58;68.21;100391.16;5077685;28;20025;-61
2021/06/08 02:04:15;;;;;;;8.23;7.40;;;;;;;18.56;68.73;100381.50;5068779;28;20028;-61
2021/06/08 02:06:54;;;;;;;16.25;7.00;;;;;;;18.51;68.94;100392.22;5077338;28;20020;-61
2021/06/08 02:09:46;;;;;;;11.60;7.47;;;;;;;18.50;68.69;100396.31;5077491;28;20027;-61
2021/06/08 02:12:17;;;;;;;16.27;7.72;;;;;;;18.50;68.69;100389.81;5077371;28;20419;-61
2021/06/08 02:14:56;;;;;;;9.77;6.65;;;;;;;18.49;69.21;100389.03;5065918;28;20071;-61
2021/06/08 02:17:37;;;;;;;11.32;7.47;;;;;;;18.49;69.04;100389.03;5075598;28;20477;-61
2021/06/08 02:20:08;;;;;;;11.40;7.45;;;;;;;18.49;69.10;100389.03;5076292;28;20028;-61
2021/06/08 02:22:37;;;;;;;10.63;7.75;;;;;;;18.48;69.30;100395.19;5076891;28;20384;-62
2021/06/08 02:25:05;;;;;;;7.90;7.10;;;;;;;18.47;69.16;100391.53;5077098;28;20477;-61
2021/06/08 02:27:31;;;;;;;11.38;7.30;;;;;;;18.47;69.14;100396.44;5077221;28;20086;-61
2021/06/08 02:29:58;;;;;;;18.55;7.43;;;;;;;18.47;68.93;100390.75;5077031;28;20073;-61
2021/06/08 02:32:25;;;;;;;8.15;6.30;;;;;;;18.48;68.85;100395.97;5076913;28;20025;-61
2021/06/08 02:34:51;;;;;;;13.95;6.50;;;;;;;18.47;68.65;100394.38;5082608;28;20015;-61
2021/06/08 02:37:19;;;;;;;9.40;6.90;;;;;;;18.45;69.07;100393.25;5085117;28;20020;-61
2021/06/08 02:39:45;;;;;;;8.48;7.50;;;;;;;18.38;69.50;100399.19;5076299;28;20101;-61
2021/06/08 02:42:12;;;;;;;12.05;6.60;;;;;;;18.28;69.92;100397.47;5077004;28;20020;-61
2021/06/08 02:44:40;;;;;;;13.20;7.38;;;;;;;18.23;69.94;100402.47;5076078;28;20424;-61
2021/06/08 02:47:05;;;;;;;9.02;6.97;;;;;;;18.21;69.78;100407.81;5076576;28;20107;-61
2021/06/08 02:49:32;;;;;;;9.48;7.20;;;;;;;18.18;70.46;100403.03;5076486;28;20107;-61
2021/06/08 02:51:59;;;;;;;9.63;7.45;;;;;;;18.19;70.77;100403.84;5076459;28;20020;-61
2021/06/08 02:54:25;;;;;;;11.93;7.50;;;;;;;18.20;70.23;100405.44;5076843;28;20293;-61
2021/06/08 02:56:52;;;;;;;10.07;7.25;;;;;;;18.21;70.10;100409.88;5076405;28;20024;-61
2021/06/08 02:59:18;;;;;;;8.55;6.95;;;;;;;18.23;69.61;100408.16;5076699;28;20024;-61
2021/06/08 03:01:52;;;;;;;9.70;5.95;;;;;;;18.24;69.77;100406.13;5075955;28;20036;-61
2021/06/08 03:04:21;;;;;;;11.15;7.28;;;;;;;18.25;69.89;100404.06;5076387;28;20032;-61
2021/06/08 03:07:00;;;;;;;9.80;6.63;;;;;;;18.22;70.08;100400.88;5075025;28;20035;-61
2021/06/08 03:09:31;;;;;;;11.27;6.50;;;;;;;18.22;69.79;100400.09;5076433;28;20040;-61
2021/06/08 03:12:00;;;;;;;12.63;7.47;;;;;;;18.19;70.11;100401.78;5074949;28;20323;-61
2021/06/08 03:14:27;;;;;;;15.73;8.32;;;;;;;18.15;70.25;100392.56;5074793;28;20060;-61
2021/06/08 03:16:55;;;;;;;19.98;8.48;;;;;;;18.10;70.89;100401.69;5075974;28;20093;-61
2021/06/08 03:19:24;;;;;;;14.00;7.53;;;;;;;18.12;71.22;100410.56;5075817;28;20435;-61
2021/06/08 03:21:52;;;;;;;10.35;7.30;;;;;;;18.22;71.13;100417.16;5076088;28;20032;-61
2021/06/08 03:24:19;;;;;;;11.00;6.88;;;;;;;18.25;70.07;100421.94;5069247;28;20029;-61
2021/06/08 03:26:46;;;;;;;12.18;6.85;;;;;;;18.22;70.16;100415.09;5071826;28;20056;-61
2021/06/08 03:29:14;;;;;;;11.30;6.93;;;;;;;18.19;70.39;100420.91;5064845;28;20021;-62
2021/06/08 03:31:43;;;;;;;14.23;7.25;;;;;;;18.18;70.27;100422.97;5076191;28;20417;-61
2021/06/08 03:34:15;;;;;;;13.75;7.05;;;;;;;18.16;70.41;100425.47;5072897;28;20436;-61
2021/06/08 03:36:43;;;;;;;10.85;7.20;;;;;;;18.19;69.96;100427.41;5065641;28;20035;-61
2021/06/08 03:39:09;;;;;;;13.88;7.00;;;;;;;18.22;70.04;100422.84;5075581;28;20071;-61
2021/06/08 03:41:35;;;;;;;15.20;7.57;;;;;;;18.25;69.96;100429.66;5071212;28;20060;-61
2021/06/08 03:44:01;;;;;;;11.18;6.50;;;;;;;18.23;70.13;100428.06;5065551;28;20110;-61
2021/06/08 03:46:27;;;;;;;13.68;7.25;;;;;;;18.22;70.71;100435.03;5061756;28;20025;-61
2021/06/08 03:48:57;;;;;;;15.05;7.63;;;;;;;18.21;70.39;100436.28;5065620;28;20151;-61
2021/06/08 03:51:27;;;;;;;10.75;7.28;;;;;;;18.22;70.24;100443.56;5070011;28;20024;-61
2021/06/08 03:53:52;;;;;;;11.77;7.75;;;;;;;18.22;70.09;100437.88;5069470;28;20024;-61
2021/06/08 03:56:18;;;;;;;11.95;7.70;;;;;;;18.26;70.25;100442.63;5068028;28;20077;-61
2021/06/08 03:58:44;;;;;;;7.70;6.80;;;;;;;18.30;70.03;100429.09;5073177;28;20034;-62
2021/06/08 04:01:10;;;;;;;10.00;7.47;;;;;;;18.34;70.17;100432.63;5066376;28;20024;-61
2021/06/08 04:03:35;;;;;;;11.75;6.82;;;;;;;18.38;70.23;100441.88;5071188;28;20020;-61
2021/06/08 04:06:01;;;;;;;8.27;7.00;;;;;;;18.43;70.38;100439.25;5067709;28;20114;-61
2021/06/08 04:08:28;;;;;;;12.52;7.40;;;;;;;18.49;70.26;100436.63;5070136;28;20016;-61
2021/06/08 04:10:54;;;;;;;12.23;7.88;;;;;;;18.56;70.08;100433.53;5068953;28;20470;-63
2021/06/08 04:13:20;;;;;;;12.43;7.65;;;;;;;18.64;69.90;100437.78;5072582;28;20079;-62
2021/06/08 04:15:48;;;;;;;9.25;7.47;;;;;;;18.74;69.67;100438.66;5075308;28;20025;-62
2021/06/08 04:18:13;;;;;;;11.38;7.85;;;;;;;18.82;69.21;100434.31;5075312;28;20032;-65
2021/06/08 04:20:39;;;;;;;9.20;6.80;;;;;;;18.93;68.59;100437.63;5072418;28;20394;-62
2021/06/08 04:23:06;;;;;;;14.00;7.32;;;;;;;19.04;68.44;100440.88;5071617;28;20025;-65
2021/06/08 04:25:31;;;;;;;16.80;7.57;;;;;;;19.14;69.02;100441.75;5072576;28;20024;-63
2021/06/08 04:27:57;;;;;;;14.93;7.78;;;;;;;19.22;68.79;100445.97;5079167;28;20016;-64
2021/06/08 04:30:23;;;;;;;16.40;7.88;;;;;;;19.31;68.61;100445.25;5072642;28;20032;-64
2021/06/08 04:32:49;;;;;;;8.63;7.40;;;;;;;19.40;68.37;100446.09;5070263;28;20020;-64
2021/06/08 04:35:16;;;;;;;8.25;7.07;;;;;;;19.49;68.27;100436.84;5063686;28;20025;-66
2021/06/08 04:37:42;;;;;;;12.68;6.72;;;;;;;19.59;67.85;100434.88;5064731;28;20428;-64
2021/06/08 04:40:10;;;;;;;8.93;6.82;;;;;;;19.70;68.13;100438.13;5062171;28;20119;-64
2021/06/08 04:42:37;;;;;;;10.70;6.90;;;;;;;19.80;67.80;100445.50;5066038;28;20017;-64
2021/06/08 04:45:03;;;;;;;11.77;6.63;;;;;;;19.91;66.90;100448.72;5065173;28;20037;-63
2021/06/08 04:47:28;;;;;;;8.00;6.28;;;;;;;20.03;67.19;100436.47;5059229;28;20155;-63
2021/06/08 04:49:54;;;;;;;8.00;6.55;;;;;;;20.16;67.55;100444.13;5060424;28;20325;-63
2021/06/08 04:52:19;;;;;;;9.90;6.20;;;;;;;20.26;65.57;100442.88;5062429;28;20024;-62
2021/06/08 04:54:45;;;;;;;8.32;6.57;;;;;;;20.35;65.87;100438.03;5063363;28;20028;-62
2021/06/08 04:57:15;;;;;;;9.50;6.65;;;;;;;20.45;64.54;100444.59;5062865;28;20355;-63
2021/06/08 04:59:49;;;;;;;8.88;6.15;;;;;;;20.53;65.02;100445.09;5065335;28;20051;-63
2021/06/08 05:02:52;;;;;;;8.30;5.78;;;;;;;20.61;64.78;100441.50;5060390;28;20071;-63
2021/06/08 05:05:27;;;;;;;8.57;5.15;;;;;;;20.74;64.13;100449.13;5065975;28;20020;-62
2021/06/08 05:08:22;;;;;;;14.00;5.57;;;;;;;20.85;63.90;100450.31;5075095;28;20055;-63
2021/06/08 05:10:54;;;;;;;9.98;5.07;;;;;;;20.98;62.05;100450.16;5075554;28;20073;-63
2021/06/08 05:13:21;;;;;;;10.98;4.88;;;;;;;21.07;60.81;100444.44;5075581;28;20073;-63
2021/06/08 05:15:50;;;;;;;11.77;5.55;;;;;;;21.17;60.98;100448.13;5075580;28;20315;-63
2021/06/08 05:18:16;;;;;;;9.15;5.00;;;;;;;21.26;59.87;100451.81;5076402;28;20052;-63
2021/06/08 05:20:44;;;;;;;7.57;4.57;;;;;;;21.38;58.78;100452.16;5076959;28;20052;-63
2021/06/08 05:23:13;;;;;;;9.52;4.85;;;;;;;21.48;58.71;100456.59;5077962;28;20416;-63
2021/06/08 05:25:39;;;;;;;12.98;4.57;;;;;;;21.55;58.92;100459.91;5077929;28;20063;-63
2021/06/08 05:28:06;;;;;;;9.40;4.80;;;;;;;21.62;59.01;100455.16;5078318;28;20066;-63
2021/06/08 05:30:32;;;;;;;6.60;4.60;;;;;;;21.66;58.27;100459.44;5078279;28;20021;-63
2021/06/08 05:32:57;;;;;;;9.15;4.55;;;;;;;21.69;57.99;100454.84;5077792;28;20032;-62
2021/06/08 05:35:29;;;;;;;7.15;4.25;;;;;;;21.72;58.47;100460.41;5088372;28;20126;-64
2021/06/08 05:38:05;;;;;;;6.18;4.20;;;;;;;21.77;57.73;100462.59;5078554;28;20420;-64
2021/06/08 05:40:30;;;;;;;5.32;4.05;;;;;;;21.79;57.81;100462.94;5077813;28;20031;-64
2021/06/08 05:42:56;;;;;;;9.10;4.63;;;;;;;21.80;58.45;100467.38;5066954;28;20346;-63
2021/06/08 05:45:21;;;;;;;5.80;4.68;;;;;;;21.83;58.28;100475.00;5084800;28;20040;-64
2021/06/08 05:47:47;;;;;;;5.65;4.07;;;;;;;21.84;57.37;100475.78;5077942;28;20078;-63
2021/06/08 05:50:12;;;;;;;8.38;4.38;;;;;;;21.86;57.02;100476.09;5077991;28;20049;-63
2021/06/08 05:52:38;;;;;;;9.68;4.93;;;;;;;21.87;56.68;100467.03;5077727;28;20375;-62
2021/06/08 05:55:05;;;;;;;16.73;4.63;;;;;;;21.89;56.45;100473.06;5077433;28;20020;-63
2021/06/08 05:57:31;;;;;;;14.98;4.35;;;;;;;21.92;57.26;100471.34;5077821;28;20052;-64
2021/06/08 05:59:58;;;;;;;5.38;4.15;;;;;;;21.94;57.69;100471.66;5077580;28;20289;-63
2021/06/08 06:02:24;;;;;;;9.10;4.47;;;;;;;21.97;57.35;100472.75;5077783;28;20036;-62
2021/06/08 06:04:49;;;;;;;9.70;4.85;;;;;;;21.98;57.14;100466.56;5077363;28;20056;-62
2021/06/08 06:07:16;;;;;;;6.85;4.57;;;;;;;22.00;56.39;100469.72;5077735;28;20024;-63
2021/06/08 06:09:41;;;;;;;8.98;4.25;;;;;;;22.02;56.96;100477.84;5077282;28;20039;-63
2021/06/08 06:12:08;;;;;;;12.60;4.65;;;;;;;22.05;57.08;100476.91;5077288;28;20024;-63
2021/06/08 06:14:36;;;;;;;4.63;3.58;;;;;;;22.07;55.95;100478.00;5077563;28;20020;-63
2021/06/08 06:17:03;;;;;;;8.18;3.85;;;;;;;22.09;54.90;100471.81;5077218;28;20021;-64
2021/06/08 06:19:29;;;;;;;7.03;4.07;;;;;;;22.09;54.71;100475.47;5077597;28;20077;-63
2021/06/08 06:21:55;;;;;;;7.03;3.72;;;;;;;22.09;55.32;100486.13;5077251;28;20025;-63
2021/06/08 06:24:21;;;;;;;6.05;3.90;;;;;;;22.08;55.99;100485.31;5077177;28;20024;-63
2021/06/08 06:26:47;;;;;;;7.90;4.20;;;;;;;22.09;56.36;100483.25;5077063;28;20040;-63
2021/06/08 06:29:14;;;;;;;5.97;4.00;;;;;;;22.09;56.22;100480.38;5077023;28;20312;-63
2021/06/08 06:31:49;;;;;;;5.57;4.20;;;;;;;22.10;56.47;100484.84;5077170;28;20048;-63
2021/06/08 06:34:17;;;;;;;13.07;5.22;;;;;;;22.09;55.92;100480.38;5077364;28;20020;-63
2021/06/08 06:36:46;;;;;;;5.53;4.05;;;;;;;22.10;55.84;100479.13;5087630;28;20024;-63
2021/06/08 06:39:22;;;;;;;8.10;4.07;;;;;;;22.10;54.93;100487.69;5076446;28;20059;-62
2021/06/08 06:41:51;;;;;;;14.25;4.22;;;;;;;22.08;54.90;100478.81;5077251;28;20062;-63
2021/06/08 06:44:21;;;;;;;7.72;3.65;;;;;;;22.08;55.05;100482.47;5076854;28;20025;-63
2021/06/08 06:46:49;;;;;;;12.73;4.40;;;;;;;22.09;55.40;100480.38;5076061;28;20024;-63
2021/06/08 06:49:15;;;;;;;5.00;4.30;;;;;;;22.11;55.57;100481.50;5076658;28;20029;-63
2021/06/08 06:51:44;;;;;;;11.52;4.18;;;;;;;22.16;55.34;100482.91;5076735;28;20112;-63
2021/06/08 06:54:09;;;;;;;9.77;4.40;;;;;;;22.18;55.41;100480.34;5076496;28;20029;-63
2021/06/08 06:56:35;;;;;;;4.35;3.85;;;;;;;22.20;56.00;100477.84;5076717;28;20027;-63
2021/06/08 06:59:00;;;;;;;8.07;4.00;;;;;;;22.25;55.74;100482.91;5076583;28;20071;-63
2021/06/08 07:01:27;;;;;;;9.35;4.55;;;;;;;22.30;55.35;100482.25;5076067;28;20070;-63
2021/06/08 07:03:58;;;;;;;6.43;4.50;;;;;;;22.38;55.03;100483.50;5076552;28;20016;-63
2021/06/08 07:06:24;;;;;;;5.60;4.53;;;;;;;22.44;54.19;100487.28;5076331;28;20417;-63
2021/06/08 07:08:53;;;;;;;10.18;4.10;;;;;;;22.45;54.09;100479.47;5074957;28;20032;-63
2021/06/08 07:11:19;;;;;;;9.68;4.15;;;;;;;22.46;54.03;100487.63;5076125;28;20412;-63
2021/06/08 07:13:45;;;;;;;7.15;3.88;;;;;;;22.46;53.85;100489.66;5076162;28;20506;-63
2021/06/08 07:16:13;;;;;;;8.00;4.32;;;;;;;22.46;54.37;100484.75;5076035;28;20374;-63
2021/06/08 07:18:40;;;;;;;5.95;4.20;;;;;;;22.47;54.89;100492.06;5076044;28;20324;-62
2021/06/08 07:21:06;;;;;;;6.18;3.85;;;;;;;22.50;54.59;100496.03;5076209;28;20354;-63
2021/06/08 07:23:32;;;;;;;6.07;4.25;;;;;;;22.51;55.01;100498.41;5076093;28;20479;-63
2021/06/08 07:25:58;;;;;;;8.35;4.32;;;;;;;22.54;54.90;100498.72;5075836;28;20039;-64
2021/06/08 07:28:25;;;;;;;8.15;3.97;;;;;;;22.55;54.33;100494.56;5075061;28;20434;-63
2021/06/08 07:30:51;;;;;;;8.88;4.00;;;;;;;22.57;54.00;100498.53;5075855;28;20020;-62
2021/06/08 07:33:46;;;;;;;6.35;3.78;;;;;;;22.58;53.78;100496.47;5075958;28;20108;-64
2021/06/08 07:36:28;;;;;;;9.25;3.92;;;;;;;22.60;54.42;100493.91;5086569;28;20020;-64
2021/06/08 07:38:58;;;;;;;6.82;4.05;;;;;;;22.64;53.91;100497.41;5075795;28;20332;-64
2021/06/08 07:41:39;;;;;;;12.25;4.40;;;;;;;22.67;54.68;100500.09;5075806;28;20050;-65
2021/06/08 07:44:06;;;;;;;9.57;4.25;;;;;;;22.72;54.68;100498.63;5075677;28;20028;-64
2021/06/08 07:46:56;;;;;;;7.85;4.28;;;;;;;22.79;54.91;100501.16;5050361;28;20343;-64
2021/06/08 07:49:22;;;;;;;14.95;4.88;;;;;;;22.85;53.96;100504.19;5075632;28;20035;-65
2021/06/08 07:51:48;;;;;;;7.35;4.07;;;;;;;22.87;52.98;100498.75;5075597;28;20024;-67
2021/06/08 07:54:14;;;;;;;5.35;3.38;;;;;;;22.85;52.81;100489.84;5075743;28;20028;-66
2021/06/08 07:56:40;;;;;;;11.77;4.20;;;;;;;22.85;53.42;100495.59;5075678;28;20408;-65
2021/06/08 07:59:08;;;;;;;10.70;4.22;;;;;;;22.84;52.87;100494.78;5075590;28;20107;-65
2021/06/08 08:01:34;;;;;;;7.63;4.15;;;;;;;22.85;53.29;100498.44;5075327;28;20050;-66
2021/06/08 08:03:59;;;;;;;5.97;4.22;;;;;;;22.84;53.45;100491.94;5075839;28;20056;-65
2021/06/08 08:06:25;;;;;;;7.20;4.20;;;;;;;22.86;53.65;100497.97;5075294;28;20027;-64
2021/06/08 08:08:53;;;;;;;6.97;3.42;;;;;;;22.89;54.07;100505.59;5075578;28;20032;-63
2021/06/08 08:11:19;;;;;;;7.57;4.00;;;;;;;22.93;54.63;100500.47;5075511;28;20103;-65
2021/06/08 08:13:47;;;;;;;8.38;4.40;;;;;;;22.96;53.89;100505.22;5075250;28;20432;-64
2021/06/08 08:16:14;;;;;;;9.38;4.25;;;;;;;23.00;54.29;100499.31;5075268;28;20021;-63
2021/06/08 08:18:45;;;;;;;10.57;4.18;;;;;;;23.04;55.04;100495.00;5075272;28;20055;-63
2021/06/08 08:21:14;;;;;;;8.93;3.95;;;;;;;23.11;55.00;100500.38;5075158;28;20024;-65
2021/06/08 08:23:42;;;;;;;6.25;4.22;;;;;;;23.19;53.50;100497.13;5075144;28;20051;-64
2021/06/08 08:26:10;;;;;;;5.47;4.00;;;;;;;23.25;53.17;100501.72;5075538;28;20048;-62
2021/06/08 08:28:37;;;;;;;5.20;3.95;;;;;;;23.33;52.68;100500.06;5075412;28;20031;-63
2021/06/08 08:31:06;;;;;;;7.25;4.00;;;;;;;23.39;53.11;100495.25;5074830;28;20039;-63
2021/06/08 08:33:31;;;;;;;5.22;3.60;;;;;;;23.46;53.18;100496.94;5075032;28;20319;-63
2021/06/08 08:35:58;;;;;;;6.38;4.15;;;;;;;23.54;52.03;100497.34;5086291;28;20026;-63
2021/06/08 08:38:24;;;;;;;4.55;3.50;;;;;;;23.61;50.95;100497.81;5075049;28;20048;-63
2021/06/08 08:40:50;;;;;;;5.40;3.67;;;;;;;23.67;51.85;100507.34;5075194;28;20036;-63
2021/06/08 08:43:17;;;;;;;4.80;3.60;;;;;;;23.73;51.35;100508.22;5075142;28;20107;-64
2021/06/08 08:45:42;;;;;;;4.47;3.20;;;;;;;23.76;50.60;100505.66;5075113;28;20452;-63
2021/06/08 08:48:08;;;;;;;5.80;3.60;;;;;;;23.79;51.07;100502.59;5074586;28;20111;-62
2021/06/08 08:50:34;;;;;;;13.93;3.47;;;;;;;23.81;49.54;100504.97;5075261;28;20056;-62
2021/06/08 08:53:02;;;;;;;4.80;2.95;;;;;;;23.80;48.64;100500.50;5074651;28;20031;-62
2021/06/08 08:55:30;;;;;;;9.68;3.67;;;;;;;23.79;49.63;100507.53;5073991;28;20118;-62
2021/06/08 08:57:58;;;;;;;8.55;3.97;;;;;;;23.77;49.60;100515.84;5074830;28;20025;-63
2021/06/08 09:00:27;;;;;;;6.35;4.00;;;;;;;23.77;50.14;100510.13;5074972;28;20124;-62
2021/06/08 09:02:58;;;;;;;9.57;3.67;;;;;;;23.77;50.04;100505.16;5074577;28;20082;-62
2021/06/08 09:05:24;;;;;;;8.52;4.15;;;;;;;23.79;50.56;100513.28;5075180;28;20413;-62
2021/06/08 09:07:50;;;;;;;8.23;3.80;;;;;;;23.85;52.71;100505.59;5074893;28;20440;-62
2021/06/08 09:10:16;;;;;;;6.28;3.83;;;;;;;23.93;52.22;100501.84;5078629;28;20028;-63
2021/06/08 09:12:41;;;;;;;10.98;3.63;;;;;;;24.06;52.85;100501.53;5078507;28;20020;-62
2021/06/08 09:15:08;;;;;;;4.38;3.47;;;;;;;24.17;50.44;100493.16;5077368;28;20023;-62
2021/06/08 09:17:39;;;;;;;8.57;3.60;;;;;;;24.28;50.82;100487.63;5078738;28;20039;-63
2021/06/08 09:20:10;;;;;;;6.28;3.45;;;;;;;24.39;50.20;100487.03;5078453;28;20031;-63
2021/06/08 09:22:49;;;;;;;6.25;3.60;;;;;;;24.48;48.82;100484.06;5078442;28;20028;-64
2021/06/08 09:25:38;;;;;;;5.57;3.15;;;;;;;24.61;48.60;100484.50;5078301;28;20034;-63
2021/06/08 09:28:12;;;;;;;4.70;3.40;;;;;;;24.69;47.72;100484.91;5078355;28;20025;-65
2021/06/08 09:30:38;;;;;;;5.28;3.40;;;;;;;24.77;47.96;100476.66;5078277;28;20419;-63
2021/06/08 09:33:31;;;;;;;10.60;3.47;;;;;;;24.79;45.14;100469.13;5078039;28;20146;-64
2021/06/08 09:36:08;;;;;;;5.50;3.20;;;;;;;24.86;46.35;100474.44;5071116;28;20039;-63
2021/06/08 09:38:36;;;;;;;4.00;2.85;;;;;;;24.95;44.88;100459.19;5078131;28;20052;-63
2021/06/08 09:41:22;;;;;;;4.43;3.08;;;;;;;25.04;44.28;100467.69;5078002;28;20297;-63
2021/06/08 09:43:52;;;;;;;5.28;3.28;;;;;;;25.11;45.22;100457.84;5078168;28;20400;-62
2021/06/08 09:46:20;;;;;;;5.53;3.37;;;;;;;25.24;46.74;100458.28;5077770;28;20021;-62
2021/06/08 09:48:54;;;;;;;8.07;3.42;;;;;;;25.42;44.75;100460.06;5077877;28;20029;-62
2021/06/08 09:51:21;;;;;;;4.40;3.30;;;;;;;25.48;42.27;100458.84;5077790;28;20154;-63
2021/06/08 09:53:46;;;;;;;4.57;3.15;;;;;;;25.57;43.06;100463.66;5077943;28;20017;-62
2021/06/08 09:56:13;;;;;;;8.45;3.30;;;;;;;25.62;42.14;100456.38;5077568;28;20032;-64
2021/06/08 09:58:47;;;;;;;5.60;3.20;;;;;;;25.69;43.42;100459.63;5077961;28;20082;-63
2021/06/08 10:01:25;;;;;;;6.07;2.70;;;;;;;25.83;45.45;100455.88;5077633;28;20028;-63
2021/06/08 10:03:55;;;;;;;5.20;3.30;;;;;;;25.92;44.91;100460.66;5078106;28;20039;-64
2021/06/08 10:06:27;;;;;;;5.28;2.88;;;;;;;26.10;41.01;100448.03;5077619;28;20071;-63
2021/06/08 10:08:57;;;;;;;5.85;2.92;;;;;;;26.23;39.60;100456.25;5077637;28;20024;-63
2021/06/08 10:11:31;;;;;;;5.30;3.20;;;;;;;26.25;39.57;100453.63;5077387;28;20028;-63
2021/06/08 10:14:18;;;;;;;4.40;3.00;;;;;;;26.32;40.58;100458.97;5077237;28;20024;-63
2021/06/08 10:16:45;;;;;;;9.27;2.83;;;;;;;26.34;40.63;100454.28;5077564;28;20032;-64
2021/06/08 10:19:12;;;;;;;3.53;2.53;;;;;;;26.28;38.89;100449.72;5076967;28;20023;-63
2021/06/08 10:21:47;;;;;;;8.13;3.28;;;;;;;26.36;39.75;100457.44;5076359;28;20142;-64
2021/06/08 10:24:15;;;;;;;7.88;2.83;;;;;;;26.44;39.68;100455.69;5077167;28;20029;-63
2021/06/08 10:26:47;;;;;;;5.88;3.10;;;;;;;26.46;38.67;100449.41;5077098;28;20103;-65
2021/06/08 10:29:14;;;;;;;7.68;2.85;;;;;;;26.50;38.03;100435.53;5075743;28;20086;-65
2021/06/08 10:31:41;;;;;;;9.25;2.75;;;;;;;26.38;37.58;100440.44;5077228;28;20059;-66
2021/06/08 10:34:08;;;;;;;5.30;2.70;;;;;;;26.40;38.89;100434.16;5076753;28;20017;-65
2021/06/08 10:36:36;;;;;;;5.90;2.78;;;;;;;26.52;40.35;100432.94;5088794;28;20044;-64
2021/06/08 10:39:07;;;;;;;6.90;3.05;;;;;;;26.74;37.99;100440.94;5076645;28;20363;-64
2021/06/08 10:41:35;;;;;;;5.18;2.60;;;;;;;26.78;37.32;100430.75;5076966;28;20067;-64
2021/06/08 10:44:02;;;;;;;3.15;2.70;;;;;;;26.77;37.63;100429.16;5076753;28;20029;-64
2021/06/08 10:46:33;;;;;;;6.68;2.60;;;;;;;26.86;38.76;100428.19;5076922;28;20025;-64
2021/06/08 10:48:59;;;;;;;11.98;2.90;;;;;;;26.95;38.32;100430.06;5076763;28;20048;-66
2021/06/08 10:51:26;;;;;;;3.55;3.03;;;;;;;26.98;37.83;100429.03;5076819;28;20103;-64
2021/06/08 10:53:56;;;;;;;6.65;2.80;;;;;;;27.00;37.77;100424.34;5076822;28;20112;-64
2021/06/08 10:56:30;;;;;;;5.32;3.03;;;;;;;27.00;36.99;100417.81;5076710;28;20111;-63
2021/06/08 10:59:00;;;;;;;7.63;2.75;;;;;;;27.08;36.96;100419.66;5076389;28;20055;-63
2021/06/08 11:01:38;;;;;;;3.67;2.53;;;;;;;27.16;37.23;100417.09;5076341;28;20009;-64
2021/06/08 11:04:08;;;;;;;4.13;2.50;;;;;;;27.35;38.99;100418.22;5076486;28;20077;-64
2021/06/08 11:06:37;;;;;;;2.95;2.65;;;;;;;27.56;37.17;100420.91;5076349;28;20070;-65
2021/06/08 11:09:15;;;;;;;7.43;2.88;;;;;;;27.67;36.73;100413.09;5076393;28;20028;-64
2021/06/08 11:11:54;;;;;;;5.35;3.17;;;;;;;27.72;36.69;100420.19;5076233;28;20021;-64
2021/06/08 11:17:35;;;;;;;4.55;3.10;;;;;;;27.59;37.42;100416.97;5054257;28;20029;-63
2021/06/08 11:20:21;;;;;;;9.70;3.30;;;;;;;27.64;37.34;100417.00;5068161;28;20036;-63
2021/06/08 11:22:47;;;;;;;7.43;2.70;;;;;;;27.69;38.33;100424.13;5076108;28;20051;-63
2021/06/08 11:25:53;;;;;;;6.68;3.58;;;;;;;27.81;38.27;100410.50;5076045;28;20463;-64
2021/06/08 11:28:19;;;;;;;5.13;3.20;;;;;;;27.94;38.29;100416.53;5044933;28;20064;-64
2021/06/08 11:31:00;;;;;;;6.60;3.05;;;;;;;28.08;38.00;100411.84;5072724;28;20064;-63
2021/06/08 11:33:28;;;;;;;9.45;3.20;;;;;;;28.16;38.39;100415.78;5076420;28;20028;-63